Time;durP1;ratioP1;P1;durP2;ratioP2;P2;SDS_P1;SDS_P2;PMS_P1;PMS_P2;Temp;Humidity;BMP_temperature;BMP_pressure;BME280_temperature;BME280_humidity;BME280_pressure;Samples;Min_cycle;Max_cycle;Signal;HPM_P1;HPM_P2
2023/04/14 00:01:51;;;;;;;8.07;4.37;;;6.60;99.90;;;;;;5009661;28;20198;-84
2023/04/14 00:04:16;;;;;;;13.23;5.43;;;6.40;99.90;;;;;;5009663;28;20236;-84
2023/04/14 00:06:42;;;;;;;7.20;3.23;;;6.40;99.90;;;;;;5011223;28;20584;-84
2023/04/14 00:09:08;;;;;;;12.93;3.33;;;6.20;99.90;;;;;;5008716;28;20190;-85
2023/04/14 00:11:33;;;;;;;10.03;2.70;;;6.10;99.90;;;;;;5011632;28;20257;-85
2023/04/14 00:14:01;;;;;;;6.03;1.90;;;6.00;99.90;;;;;;5012982;28;20444;-85
2023/04/14 00:16:28;;;;;;;5.45;1.90;;;5.90;99.90;;;;;;5007334;28;20198;-85
2023/04/14 00:18:54;;;;;;;7.60;2.15;;;5.90;99.90;;;;;;5008053;28;20187;-85
2023/04/14 00:21:20;;;;;;;5.47;2.77;;;6.20;99.90;;;;;;5006787;28;20221;-85
2023/04/14 00:23:45;;;;;;;6.67;3.40;;;5.80;99.90;;;;;;5007555;28;20210;-84
2023/04/14 00:26:11;;;;;;;6.20;3.40;;;5.80;99.90;;;;;;5005007;28;20171;-85
2023/04/14 00:28:36;;;;;;;8.37;4.50;;;5.70;99.90;;;;;;5022222;28;20261;-85
2023/04/14 00:31:02;;;;;;;10.07;5.53;;;5.60;99.90;;;;;;5000931;28;20203;-85
2023/04/14 00:33:27;;;;;;;10.57;5.00;;;5.60;99.90;;;;;;5002447;28;20285;-85
2023/04/14 00:35:53;;;;;;;7.50;5.27;;;5.50;99.90;;;;;;5002810;28;20250;-85
2023/04/14 00:38:18;;;;;;;11.40;4.13;;;5.50;99.90;;;;;;5003101;28;20226;-85
2023/04/14 00:40:44;;;;;;;8.37;4.00;;;5.50;99.90;;;;;;5002406;28;20214;-86
2023/04/14 00:43:09;;;;;;;3.83;2.83;;;5.50;99.90;;;;;;5003578;28;20214;-85
2023/04/14 00:45:44;;;;;;;5.30;3.27;;;5.50;99.90;;;;;;5003591;28;20612;-84
2023/04/14 00:48:09;;;;;;;7.70;3.05;;;5.50;99.90;;;;;;5002793;28;20266;-84
2023/04/14 00:50:35;;;;;;;6.07;2.20;;;5.50;99.90;;;;;;5000879;28;20719;-84
2023/04/14 00:53:01;;;;;;;5.97;3.30;;;5.60;99.90;;;;;;5001753;28;20225;-84
2023/04/14 00:55:27;;;;;;;15.80;3.43;;;5.50;99.90;;;;;;5002597;28;20187;-84
2023/04/14 00:57:53;;;;;;;10.07;2.87;;;5.60;99.90;;;;;;5001386;28;20194;-84
2023/04/14 01:00:19;;;;;;;8.98;2.83;;;5.60;99.90;;;;;;5000314;28;20699;-84
2023/04/14 01:02:45;;;;;;;11.73;2.70;;;5.50;99.90;;;;;;4999185;28;20194;-84
2023/04/14 01:05:11;;;;;;;6.73;2.57;;;5.40;99.90;;;;;;5017575;28;20466;-84
2023/04/14 01:07:37;;;;;;;5.00;3.13;;;5.40;99.90;;;;;;5006218;28;20181;-85
2023/04/14 01:10:04;;;;;;;6.20;2.63;;;5.30;99.90;;;;;;5009197;28;20198;-84
2023/04/14 01:12:45;;;;;;;7.72;2.97;;;5.20;99.90;;;;;;5006512;28;20189;-85
2023/04/14 01:15:16;;;;;;;4.32;2.30;;;5.10;99.90;;;;;;5000925;28;20185;-84
2023/04/14 01:17:53;;;;;;;9.05;2.40;;;5.10;99.90;;;;;;5001662;28;20186;-85
2023/04/14 01:20:29;;;;;;;4.00;2.30;;;5.30;99.90;;;;;;5003360;28;20202;-85
2023/04/14 01:23:05;;;;;;;13.27;2.00;;;5.40;99.90;;;;;;5003398;28;20190;-85
2023/04/14 01:25:57;;;;;;;9.27;3.33;;;5.50;99.90;;;;;;5005951;28;20270;-84
2023/04/14 01:28:59;;;;;;;11.27;1.92;;;5.50;99.90;;;;;;5005539;28;20202;-84
2023/04/14 01:31:43;;;;;;;5.20;2.63;;;5.50;99.90;;;;;;5004263;28;20292;-85
2023/04/14 01:34:40;;;;;;;13.25;2.83;;;5.30;99.90;;;;;;5004920;28;20191;-85
2023/04/14 01:37:13;;;;;;;10.18;2.85;;;5.30;99.90;;;;;;5009756;28;20210;-84
2023/04/14 01:39:42;;;;;;;3.42;2.00;;;5.30;99.90;;;;;;5010039;28;20210;-85
2023/04/14 01:42:15;;;;;;;6.55;2.40;;;5.20;99.90;;;;;;5018611;28;20221;-84
2023/04/14 01:44:42;;;;;;;11.43;2.65;;;5.10;99.90;;;;;;5005951;28;20229;-85
2023/04/14 01:47:12;;;;;;;4.47;2.50;;;5.10;99.90;;;;;;5006767;28;20548;-85
2023/04/14 01:49:40;;;;;;;3.88;2.25;;;5.00;99.90;;;;;;5007358;28;20215;-86
2023/04/14 01:52:08;;;;;;;10.68;2.75;;;5.10;99.90;;;;;;5009984;28;20540;-86
2023/04/14 01:54:37;;;;;;;13.07;3.55;;;5.00;99.90;;;;;;5007973;28;20497;-85
2023/04/14 01:57:03;;;;;;;7.53;2.75;;;4.90;99.90;;;;;;5008290;28;20174;-85
2023/04/14 01:59:32;;;;;;;7.95;2.75;;;4.80;99.90;;;;;;5006080;28;20203;-85
2023/04/14 02:02:00;;;;;;;14.60;2.78;;;4.80;99.90;;;;;;5010710;28;20195;-84
2023/04/14 02:04:28;;;;;;;7.18;3.05;;;4.70;99.90;;;;;;5007630;28;20206;-84
2023/04/14 02:06:56;;;;;;;8.90;2.35;;;4.70;99.90;;;;;;5005126;28;20247;-84
2023/04/14 02:09:25;;;;;;;9.30;3.10;;;4.60;99.90;;;;;;5006543;28;20636;-84
2023/04/14 02:11:52;;;;;;;7.00;2.88;;;4.70;99.90;;;;;;5009311;28;20648;-85
2023/04/14 02:14:18;;;;;;;10.43;3.08;;;4.60;99.90;;;;;;5011612;28;20186;-84
2023/04/14 02:16:47;;;;;;;12.50;4.07;;;4.60;99.90;;;;;;5010570;28;20176;-84
2023/04/14 02:19:17;;;;;;;4.10;2.78;;;4.40;99.90;;;;;;5009239;28;20594;-84
2023/04/14 02:21:44;;;;;;;7.38;2.53;;;4.40;99.90;;;;;;5007276;28;20209;-84
2023/04/14 02:24:09;;;;;;;6.90;2.35;;;4.40;99.90;;;;;;5012563;28;20336;-85
2023/04/14 02:26:39;;;;;;;19.83;2.97;;;4.40;99.90;;;;;;5004886;28;20225;-85
2023/04/14 02:29:18;;;;;;;5.60;2.60;;;4.40;99.90;;;;;;5008756;28;20182;-85
2023/04/14 02:31:57;;;;;;;11.15;2.20;;;4.30;99.90;;;;;;5005099;28;20183;-84
2023/04/14 02:34:29;;;;;;;3.50;1.75;;;4.10;99.90;;;;;;5010502;28;20186;-84
2023/04/14 02:36:56;;;;;;;6.93;2.30;;;3.90;99.90;;;;;;5009601;28;20270;-85
2023/04/14 02:39:33;;;;;;;14.20;3.13;;;3.50;99.90;;;;;;5008475;28;20199;-85
2023/04/14 02:42:12;;;;;;;11.23;2.50;;;3.60;99.90;;;;;;5001259;28;20655;-85
2023/04/14 02:44:44;;;;;;;3.08;2.10;;;3.50;99.90;;;;;;5001491;28;20260;-84
2023/04/14 02:47:12;;;;;;;5.18;2.17;;;3.60;99.90;;;;;;5013235;28;20718;-85
2023/04/14 02:49:43;;;;;;;6.25;2.03;;;3.40;99.90;;;;;;5007115;28;20204;-86
2023/04/14 02:52:11;;;;;;;6.25;2.28;;;3.30;99.90;;;;;;5000492;28;20174;-85
2023/04/14 02:54:39;;;;;;;3.28;2.20;;;3.30;99.90;;;;;;4997257;28;20211;-85
2023/04/14 02:57:05;;;;;;;11.73;2.88;;;3.30;99.90;;;;;;5000036;28;20217;-86
2023/04/14 02:59:32;;;;;;;6.63;2.20;;;3.20;99.90;;;;;;5000501;28;20209;-84
2023/04/14 03:02:01;;;;;;;5.45;2.60;;;3.20;99.90;;;;;;5000577;28;20241;-84
2023/04/14 03:04:37;;;;;;;12.60;2.97;;;3.10;99.90;;;;;;4996396;28;20207;-86
2023/04/14 03:07:05;;;;;;;9.93;2.35;;;3.00;99.90;;;;;;5009466;28;20178;-84
2023/04/14 03:09:31;;;;;;;8.88;3.05;;;3.00;99.90;;;;;;5007833;28;20214;-85
2023/04/14 03:11:59;;;;;;;6.57;2.53;;;3.00;99.90;;;;;;5008645;28;20198;-84
2023/04/14 03:14:25;;;;;;;12.55;3.17;;;2.90;99.90;;;;;;5005562;28;20551;-84
2023/04/14 03:16:53;;;;;;;10.55;3.90;;;2.90;99.90;;;;;;5002947;28;20575;-84
2023/04/14 03:19:21;;;;;;;8.40;2.55;;;2.90;99.90;;;;;;5002860;28;20178;-84
2023/04/14 03:21:48;;;;;;;11.07;2.55;;;2.90;99.90;;;;;;5005661;28;20187;-84
2023/04/14 03:24:18;;;;;;;5.18;1.77;;;2.90;99.90;;;;;;5005276;28;20202;-84
2023/04/14 03:26:47;;;;;;;4.78;2.50;;;2.90;99.90;;;;;;5005526;28;20190;-84
2023/04/14 03:29:14;;;;;;;10.70;2.33;;;2.80;99.90;;;;;;5022484;28;20207;-84
2023/04/14 03:31:43;;;;;;;8.57;3.80;;;2.80;99.90;;;;;;5005027;28;20175;-84
2023/04/14 03:34:09;;;;;;;10.77;2.25;;;2.70;99.90;;;;;;5007802;28;20177;-84
2023/04/14 03:36:35;;;;;;;5.25;2.22;;;3.00;99.90;;;;;;5004753;28;20194;-84
2023/04/14 03:39:04;;;;;;;9.13;2.97;;;2.80;99.90;;;;;;5008246;28;20201;-84
2023/04/14 03:41:34;;;;;;;10.55;2.70;;;2.70;99.90;;;;;;5008902;28;20205;-85
2023/04/14 03:44:02;;;;;;;4.00;2.20;;;2.70;99.90;;;;;;5008250;28;20195;-85
2023/04/14 03:46:29;;;;;;;6.38;2.03;;;2.70;99.90;;;;;;5008578;28;20183;-85
2023/04/14 03:48:56;;;;;;;12.77;2.28;;;2.70;99.90;;;;;;5008780;28;20652;-84
2023/04/14 03:51:26;;;;;;;5.35;2.85;;;2.80;99.90;;;;;;5009604;28;20209;-85
2023/04/14 03:53:55;;;;;;;16.55;3.20;;;2.90;99.90;;;;;;5004219;28;20785;-85
2023/04/14 03:56:21;;;;;;;19.38;3.42;;;3.00;99.90;;;;;;5002573;28;20199;-85
2023/04/14 03:58:50;;;;;;;10.80;3.35;;;3.10;99.90;;;;;;5007049;28;20699;-85
2023/04/14 04:01:18;;;;;;;10.68;4.10;;;3.20;99.90;;;;;;5007581;28;20232;-84
2023/04/14 04:03:45;;;;;;;6.40;4.20;;;3.20;99.90;;;;;;5003656;28;20217;-85
2023/04/14 04:06:11;;;;;;;12.30;4.05;;;3.30;99.90;;;;;;5005569;28;20187;-85
2023/04/14 04:08:38;;;;;;;4.47;2.50;;;3.40;99.90;;;;;;5007141;28;20209;-85
2023/04/14 04:11:06;;;;;;;8.18;3.60;;;3.40;99.90;;;;;;5004222;28;20549;-85
2023/04/14 04:13:32;;;;;;;8.13;3.67;;;3.40;99.90;;;;;;5001931;28;20179;-85
2023/04/14 04:15:58;;;;;;;26.75;4.60;;;3.40;99.90;;;;;;5002596;28;20249;-85
2023/04/14 04:18:25;;;;;;;13.03;5.57;;;3.40;99.90;;;;;;5005180;28;20182;-85
2023/04/14 04:20:52;;;;;;;9.15;4.00;;;3.40;99.90;;;;;;5005951;28;20269;-84
2023/04/14 04:23:19;;;;;;;17.70;10.00;;;3.50;99.90;;;;;;5005165;28;20189;-84
2023/04/14 04:25:44;;;;;;;7.60;3.30;;;3.60;99.90;;;;;;5003953;28;20723;-85
2023/04/14 04:28:10;;;;;;;9.00;3.50;;;3.70;99.90;;;;;;5006955;28;20210;-83
2023/04/14 04:30:39;;;;;;;12.43;3.57;;;3.50;99.90;;;;;;5004974;28;20198;-83
2023/04/14 04:33:05;;;;;;;21.50;3.88;;;3.50;99.90;;;;;;5007393;28;21402;-84
2023/04/14 04:35:32;;;;;;;28.27;5.07;;;3.40;99.90;;;;;;5006023;28;20814;-83
2023/04/14 04:38:00;;;;;;;12.02;5.50;;;3.50;99.90;;;;;;5005691;28;20193;-84
2023/04/14 04:40:25;;;;;;;14.13;4.65;;;3.40;99.90;;;;;;5007836;28;20205;-83
2023/04/14 04:42:51;;;;;;;5.47;2.80;;;3.70;99.90;;;;;;4999305;28;20194;-83
2023/04/14 04:45:35;;;;;;;8.80;2.80;;;3.70;99.90;;;;;;4997359;28;20207;-82
2023/04/14 04:48:00;;;;;;;13.25;3.58;;;3.70;99.90;;;;;;5003392;28;20229;-82
2023/04/14 04:50:26;;;;;;;8.80;4.53;;;3.70;99.90;;;;;;5006941;28;20194;-83
2023/04/14 04:52:51;;;;;;;14.77;4.70;;;3.80;99.90;;;;;;5006094;28;20179;-84
2023/04/14 04:55:17;;;;;;;9.43;4.30;;;3.90;99.90;;;;;;5006321;28;20289;-83
2023/04/14 04:57:42;;;;;;;7.73;3.80;;;3.90;99.90;;;;;;5006682;28;20187;-83
2023/04/14 05:00:08;;;;;;;9.17;4.00;;;3.90;99.90;;;;;;5005844;28;20198;-83
2023/04/14 05:02:34;;;;;;;11.70;4.40;;;4.00;99.90;;;;;;5018538;28;20197;-82
2023/04/14 05:05:00;;;;;;;6.13;3.83;;;3.90;99.90;;;;;;5001323;28;20550;-81
2023/04/14 05:07:25;;;;;;;8.50;3.67;;;3.90;99.90;;;;;;5002907;28;20179;-81
2023/04/14 05:09:51;;;;;;;8.23;3.20;;;3.90;99.90;;;;;;5007429;28;20457;-82
2023/04/14 05:12:16;;;;;;;12.00;3.30;;;3.90;99.90;;;;;;5008417;28;20241;-82
2023/04/14 05:14:42;;;;;;;21.63;10.87;;;4.00;99.90;;;;;;5008891;28;20175;-82
2023/04/14 05:17:07;;;;;;;15.10;7.93;;;4.30;99.90;;;;;;5002980;28;20190;-83
2023/04/14 05:19:33;;;;;;;12.17;5.57;;;5.20;99.90;;;;;;5005609;28;20259;-82
2023/04/14 05:21:58;;;;;;;11.70;5.10;;;6.40;99.90;;;;;;5024998;28;20741;-83
2023/04/14 05:24:24;;;;;;;6.20;2.80;;;8.00;99.90;;;;;;5021009;28;20245;-83
2023/04/14 05:26:50;;;;;;;11.60;3.47;;;9.60;99.90;;;;;;5006773;28;20238;-82
2023/04/14 05:29:15;;;;;;;9.23;4.10;;;12.60;99.90;;;;;;5010349;28;20179;-82
2023/04/14 05:31:41;;;;;;;8.90;1.53;;;12.60;99.90;;;;;;5014593;28;20984;-82
2023/04/14 05:34:06;;;;;;;5.60;2.20;;;13.40;99.90;;;;;;5009667;28;20167;-82
2023/04/14 05:36:32;;;;;;;9.30;2.70;;;13.90;99.90;;;;;;5010477;28;20182;-82
2023/04/14 05:38:57;;;;;;;5.10;1.87;;;14.30;99.90;;;;;;5010919;28;20198;-82
2023/04/14 05:41:23;;;;;;;6.20;1.97;;;13.80;99.90;;;;;;5010178;28;20557;-82
2023/04/14 05:43:48;;;;;;;7.53;2.30;;;12.60;99.90;;;;;;5014143;28;20226;-82
2023/04/14 05:46:14;;;;;;;7.53;1.60;;;11.40;99.90;;;;;;5015820;28;20217;-82
2023/04/14 05:48:39;;;;;;;7.70;2.07;;;11.70;99.90;;;;;;5022000;28;20174;-82
2023/04/14 05:51:05;;;;;;;3.27;1.20;;;11.10;99.90;;;;;;5015464;28;20207;-82
2023/04/14 05:53:31;;;;;;;4.47;1.20;;;9.90;99.90;;;;;;5013452;28;20668;-81
2023/04/14 05:55:56;;;;;;;6.20;1.67;;;8.70;99.90;;;;;;5013763;28;20206;-82
2023/04/14 05:58:22;;;;;;;2.40;1.33;;;8.40;99.90;;;;;;5011773;28;20178;-81
2023/04/14 06:00:47;;;;;;;11.50;1.47;;;8.20;99.90;;;;;;5014281;28;20196;-82
2023/04/14 06:03:14;;;;;;;6.23;2.10;;;8.10;99.90;;;;;;5013583;28;20167;-81
2023/04/14 06:05:40;;;;;;;9.07;2.28;;;7.90;99.90;;;;;;5013839;28;20198;-81
2023/04/14 06:08:05;;;;;;;3.07;1.70;;;7.80;99.90;;;;;;5017761;28;20175;-81
2023/04/14 06:10:31;;;;;;;6.27;2.27;;;8.00;99.90;;;;;;5015639;28;20187;-81
2023/04/14 06:12:57;;;;;;;2.00;1.27;;;7.90;99.90;;;;;;5016030;28;20178;-82
2023/04/14 06:15:25;;;;;;;2.27;1.33;;;7.80;99.90;;;;;;5012688;28;20263;-81
2023/04/14 06:17:51;;;;;;;6.65;1.70;;;8.00;99.90;;;;;;5015897;28;20211;-82
2023/04/14 06:20:17;;;;;;;4.03;1.70;;;7.70;99.90;;;;;;5012179;28;20222;-82
2023/04/14 06:22:43;;;;;;;4.03;1.10;;;8.30;99.90;;;;;;5015124;28;20171;-82
2023/04/14 06:25:09;;;;;;;5.17;1.17;;;9.00;99.90;;;;;;5014926;28;20217;-82
2023/04/14 06:27:35;;;;;;;11.00;1.23;;;9.10;99.90;;;;;;5013341;28;20174;-81
2023/04/14 06:30:01;;;;;;;4.73;1.60;;;8.90;99.90;;;;;;5011726;28;20764;-82
2023/04/14 06:32:26;;;;;;;4.63;1.37;;;10.50;99.90;;;;;;5010872;28;20179;-82
2023/04/14 06:34:52;;;;;;;5.90;1.60;;;12.10;99.90;;;;;;5009533;28;20237;-82
2023/04/14 06:37:18;;;;;;;4.93;2.13;;;12.30;99.90;;;;;;5007996;28;20187;-82
2023/04/14 06:39:43;;;;;;;5.93;1.50;;;13.00;99.90;;;;;;5010825;28;20282;-82
2023/04/14 06:42:12;;;;;;;7.10;1.43;;;13.90;99.90;;;;;;5025040;28;20179;-80
2023/04/14 06:44:38;;;;;;;6.05;1.55;;;15.40;99.90;;;;;;5011087;28;20245;-82
2023/04/14 06:47:04;;;;;;;5.93;1.00;;;14.30;99.90;;;;;;5006749;28;20167;-82
2023/04/14 06:49:30;;;;;;;4.73;1.63;;;14.20;99.90;;;;;;5008042;28;20493;-82
2023/04/14 06:51:55;;;;;;;5.93;1.83;;;14.90;99.80;;;;;;5015981;28;20183;-81
2023/04/14 06:54:21;;;;;;;3.63;1.60;;;15.50;99.00;;;;;;5007845;28;20187;-81
2023/04/14 06:56:47;;;;;;;7.20;1.53;;;;;;;;;;5012141;28;20197;-82
2023/04/14 06:59:13;;;;;;;3.43;1.83;;;;;;;;;;5018844;28;20718;-82
2023/04/14 07:01:38;;;;;;;5.10;2.03;;;15.80;96.20;;;;;;5011683;28;20436;-82
2023/04/14 07:04:04;;;;;;;3.70;1.03;;;;;;;;;;5010480;28;20476;-82
2023/04/14 07:06:30;;;;;;;5.00;2.53;;;16.90;95.60;;;;;;5013747;28;20179;-82
2023/04/14 07:08:55;;;;;;;4.60;1.93;;;16.90;94.20;;;;;;5010344;28;21436;-82
2023/04/14 07:11:21;;;;;;;4.63;1.83;;;17.10;91.30;;;;;;5012070;28;20471;-82
2023/04/14 07:13:46;;;;;;;4.50;2.50;;;16.20;94.20;;;;;;5012122;28;20175;-82
2023/04/14 07:16:12;;;;;;;11.70;1.50;;;;;;;;;;5010903;28;20191;-82
2023/04/14 07:18:38;;;;;;;2.90;1.50;;;16.50;89.60;;;;;;5008662;28;20191;-82
2023/04/14 07:21:03;;;;;;;2.70;1.50;;;17.90;90.20;;;;;;5010452;28;20464;-81
2023/04/14 07:23:29;;;;;;;6.33;2.07;;;16.00;92.10;;;;;;5011983;28;20194;-83
2023/04/14 07:25:59;;;;;;;3.53;1.67;;;16.80;92.50;;;;;;5014662;28;20242;-82
2023/04/14 07:28:26;;;;;;;4.73;1.90;;;16.80;92.60;;;;;;5013015;28;20432;-81
2023/04/14 07:30:53;;;;;;;11.77;2.27;;;16.30;91.30;;;;;;5011078;28;20461;-82
2023/04/14 07:33:20;;;;;;;6.20;1.40;;;15.40;93.00;;;;;;5008410;28;21479;-82
2023/04/14 07:35:50;;;;;;;8.33;1.90;;;15.90;94.00;;;;;;5010483;28;20476;-81
2023/04/14 07:38:16;;;;;;;5.77;2.17;;;15.30;93.80;;;;;;5012923;28;20455;-82
2023/04/14 07:40:41;;;;;;;7.80;2.73;;;15.30;94.50;;;;;;5011248;28;20508;-81
2023/04/14 07:43:07;;;;;;;5.70;2.47;;;14.80;94.80;;;;;;5011440;28;20214;-81
2023/04/14 07:45:33;;;;;;;4.97;1.90;;;14.50;96.00;;;;;;5009302;28;20207;-82
2023/04/14 07:47:58;;;;;;;6.87;1.40;;;13.70;97.10;;;;;;5008063;28;20187;-82
2023/04/14 07:50:24;;;;;;;2.70;1.60;;;13.60;98.00;;;;;;5007510;28;20199;-81
2023/04/14 07:52:50;;;;;;;7.50;2.23;;;14.20;99.20;;;;;;5008984;28;20164;-82
2023/04/14 07:55:15;;;;;;;8.07;2.20;;;14.90;98.70;;;;;;5010164;28;20829;-82
2023/04/14 07:57:41;;;;;;;3.57;1.40;;;15.80;98.90;;;;;;5005986;28;20217;-82
2023/04/14 08:00:08;;;;;;;6.67;1.80;;;17.20;97.10;;;;;;5010674;28;20488;-82
2023/04/14 08:02:34;;;;;;;7.97;2.40;;;17.20;95.60;;;;;;5009207;28;20202;-82
2023/04/14 08:04:59;;;;;;;3.87;1.23;;;18.10;93.60;;;;;;5010866;28;20469;-82
2023/04/14 08:07:27;;;;;;;6.90;2.00;;;17.50;91.40;;;;;;5007450;28;20198;-82
2023/04/14 08:09:53;;;;;;;8.67;1.93;;;16.90;92.00;;;;;;5007197;28;20590;-82
2023/04/14 08:12:18;;;;;;;7.57;2.00;;;16.40;93.30;;;;;;5010953;28;20525;-82
2023/04/14 08:14:46;;;;;;;5.70;2.30;;;16.00;93.30;;;;;;5009973;28;20206;-82
2023/04/14 08:17:12;;;;;;;4.60;2.10;;;;;;;;;;5008364;28;20185;-82
2023/04/14 08:19:38;;;;;;;3.87;1.87;;;;;;;;;;5025064;28;20454;-82
2023/04/14 08:22:04;;;;;;;7.63;1.67;;;;;;;;;;5009382;28;20430;-81
2023/04/14 08:24:29;;;;;;;7.73;2.30;;;15.30;95.00;;;;;;5008169;28;20486;-82
2023/04/14 08:26:55;;;;;;;9.00;2.13;;;15.70;94.40;;;;;;5008791;28;20441;-82
2023/04/14 08:29:21;;;;;;;5.90;2.33;;;;;;;;;;5006798;28;20209;-82
2023/04/14 08:31:47;;;;;;;7.10;1.93;;;;;;;;;;5010490;28;20194;-82
2023/04/14 08:34:14;;;;;;;5.73;1.53;;;17.80;92.80;;;;;;5009088;28;20441;-82
2023/04/14 08:36:40;;;;;;;5.37;1.80;;;;;;;;;;5009568;28;20443;-82
2023/04/14 08:39:06;;;;;;;15.63;2.80;;;;;;;;;;5005470;28;20455;-82
2023/04/14 08:41:37;;;;;;;4.10;1.90;;;18.60;90.90;;;;;;5005568;28;20453;-82
2023/04/14 08:44:03;;;;;;;11.87;2.70;;;;;;;;;;5008542;28;20466;-82
2023/04/14 08:46:30;;;;;;;7.43;2.10;;;18.70;87.50;;;;;;5024815;28;20425;-82
2023/04/14 08:49:05;;;;;;;3.40;2.23;;;18.10;88.90;;;;;;5010011;28;20440;-82
2023/04/14 08:51:35;;;;;;;8.27;2.40;;;19.50;88.50;;;;;;5014259;28;20959;-82
2023/04/14 08:54:04;;;;;;;5.77;2.10;;;18.00;89.80;;;;;;5011626;28;20828;-82
2023/04/14 08:56:32;;;;;;;5.00;2.63;;;17.90;88.70;;;;;;5011318;28;20440;-82
2023/04/14 08:59:00;;;;;;;7.10;2.53;;;17.40;89.00;;;;;;5011630;28;20430;-82
2023/04/14 09:01:27;;;;;;;16.13;3.40;;;17.60;90.70;;;;;;5012274;28;20472;-82
2023/04/14 09:03:54;;;;;;;9.03;3.20;;;18.40;90.10;;;;;;5011594;28;20976;-81
2023/04/14 09:06:20;;;;;;;6.13;2.50;;;17.80;92.30;;;;;;5009814;28;20461;-82
2023/04/14 09:08:46;;;;;;;4.80;1.73;;;18.40;90.40;;;;;;5009090;28;20432;-84
2023/04/14 09:11:14;;;;;;;15.43;2.03;;;18.50;90.20;;;;;;5003553;28;20453;-84
2023/04/14 09:13:42;;;;;;;7.47;1.97;;;19.40;86.40;;;;;;5018734;28;20179;-85
2023/04/14 09:16:09;;;;;;;5.40;1.70;;;19.40;91.30;;;;;;5003589;28;20493;-84
2023/04/14 09:18:35;;;;;;;2.90;1.33;;;;;;;;;;5003074;28;20429;-84
2023/04/14 09:21:02;;;;;;;5.73;2.20;;;;;;;;;;5003043;28;20887;-84
2023/04/14 09:23:28;;;;;;;4.17;1.83;;;18.50;88.00;;;;;;5004522;28;20501;-83
2023/04/14 09:25:54;;;;;;;3.53;1.73;;;19.40;91.30;;;;;;5002682;28;20528;-84
2023/04/14 09:28:20;;;;;;;8.20;1.77;;;;;;;;;;5003781;28;21145;-84
2023/04/14 09:30:46;;;;;;;3.43;2.00;;;;;;;;;;5021369;28;20497;-84
2023/04/14 09:33:22;;;;;;;8.77;2.13;;;20.30;84.60;;;;;;5006522;28;20429;-84
2023/04/14 09:35:49;;;;;;;9.33;2.33;;;20.40;82.10;;;;;;5003212;28;20464;-84
2023/04/14 09:38:29;;;;;;;9.93;2.13;;;19.50;84.20;;;;;;5004962;28;20457;-84
2023/04/14 09:40:55;;;;;;;7.10;1.77;;;18.50;88.70;;;;;;5005369;28;20462;-84
2023/04/14 09:43:28;;;;;;;8.77;2.57;;;20.10;85.50;;;;;;5005613;28;22148;-85
2023/04/14 09:45:54;;;;;;;8.70;1.93;;;19.30;81.90;;;;;;5018317;28;20559;-84
2023/04/14 09:48:20;;;;;;;4.00;2.07;;;18.60;80.30;;;;;;5005712;28;20513;-84
2023/04/14 09:50:57;;;;;;;7.50;2.07;;;18.60;81.10;;;;;;5001965;28;20446;-85
2023/04/14 09:53:34;;;;;;;6.47;2.57;;;19.00;82.30;;;;;;5003699;28;20435;-84
2023/04/14 09:56:05;;;;;;;6.23;2.20;;;18.80;79.80;;;;;;5013951;28;20524;-84
2023/04/14 09:58:36;;;;;;;8.07;2.10;;;18.80;84.70;;;;;;5008887;28;20429;-85
2023/04/14 10:01:04;;;;;;;7.43;2.13;;;19.20;88.00;;;;;;5010949;28;20492;-84
2023/04/14 10:03:36;;;;;;;16.00;2.60;;;19.00;83.70;;;;;;5010649;28;20460;-84
2023/04/14 10:06:22;;;;;;;4.50;2.17;;;17.60;80.80;;;;;;5009722;28;20945;-84
2023/04/14 10:08:50;;;;;;;4.40;2.23;;;17.60;80.80;;;;;;5006854;28;20487;-84
2023/04/14 10:11:22;;;;;;;3.47;1.80;;;17.20;79.20;;;;;;5008658;28;20456;-84
2023/04/14 10:13:50;;;;;;;10.73;2.00;;;16.80;83.20;;;;;;5009201;28;20453;-85
2023/04/14 10:16:16;;;;;;;3.67;1.83;;;17.10;88.00;;;;;;5011930;28;20426;-83
2023/04/14 10:18:42;;;;;;;7.87;2.07;;;16.10;87.70;;;;;;5011056;28;20426;-84
2023/04/14 10:21:08;;;;;;;5.60;1.90;;;14.20;91.50;;;;;;5005202;28;20460;-86
2023/04/14 10:23:38;;;;;;;5.70;2.40;;;14.20;91.80;;;;;;5008640;28;20480;-85
2023/04/14 10:26:06;;;;;;;7.10;1.77;;;14.20;93.50;;;;;;5014268;28;20470;-85
2023/04/14 10:28:34;;;;;;;6.10;2.43;;;14.40;95.30;;;;;;5014758;28;20763;-85
2023/04/14 10:31:00;;;;;;;5.73;2.70;;;14.40;95.70;;;;;;5016874;28;20468;-85
2023/04/14 10:33:27;;;;;;;6.43;3.13;;;14.50;96.60;;;;;;5020649;28;20436;-85
2023/04/14 10:35:59;;;;;;;10.70;2.70;;;14.50;97.50;;;;;;5015465;28;20437;-84
2023/04/14 10:38:41;;;;;;;6.23;1.70;;;14.20;98.60;;;;;;5006484;28;20982;-84
2023/04/14 10:41:07;;;;;;;15.43;2.47;;;14.60;94.70;;;;;;5009755;28;20490;-85
2023/04/14 10:43:35;;;;;;;15.60;2.70;;;15.10;96.90;;;;;;5007448;28;20462;-85
2023/04/14 10:46:01;;;;;;;10.23;2.40;;;;;;;;;;5007894;28;20425;-84
2023/04/14 10:48:34;;;;;;;6.30;2.00;;;15.60;93.50;;;;;;5010650;28;20443;-84
2023/04/14 10:51:08;;;;;;;9.47;2.50;;;15.60;95.50;;;;;;5010672;28;20453;-85
2023/04/14 10:53:47;;;;;;;6.07;2.10;;;15.00;91.40;;;;;;5010602;28;20909;-86
2023/04/14 10:56:13;;;;;;;12.03;2.23;;;14.70;93.80;;;;;;5010669;28;20418;-84
2023/04/14 10:58:39;;;;;;;4.80;2.00;;;14.90;95.00;;;;;;5010106;28;20433;-85
2023/04/14 11:01:21;;;;;;;5.97;2.07;;;15.40;93.50;;;;;;5011377;28;21366;-85
2023/04/14 11:03:47;;;;;;;9.00;2.20;;;15.40;90.10;;;;;;5008839;28;20696;-85
2023/04/14 11:06:12;;;;;;;8.60;2.07;;;15.40;90.40;;;;;;5011505;28;20438;-86
2023/04/14 11:08:38;;;;;;;6.30;1.90;;;15.50;91.40;;;;;;5015256;28;20635;-85
2023/04/14 11:11:05;;;;;;;3.17;1.67;;;15.00;94.30;;;;;;5010085;28;20203;-84
2023/04/14 11:14:03;;;;;;;10.70;2.70;;;14.60;92.10;;;;;;5014489;28;20183;-84
2023/04/14 11:16:28;;;;;;;17.80;2.37;;;14.40;91.30;;;;;;5013627;28;20541;-86
2023/04/14 11:18:54;;;;;;;6.37;1.90;;;14.30;94.10;;;;;;5008446;28;20466;-85
2023/04/14 11:21:19;;;;;;;7.97;5.07;;;13.50;93.20;;;;;;5007473;28;20203;-85
2023/04/14 11:23:46;;;;;;;4.53;2.00;;;13.00;91.50;;;;;;5014146;28;20175;-86
2023/04/14 11:26:15;;;;;;;8.73;2.03;;;13.00;94.50;;;;;;5010961;28;20175;-84
2023/04/14 11:28:43;;;;;;;4.40;1.58;;;13.00;92.20;;;;;;5012980;28;20434;-85
2023/04/14 11:31:10;;;;;;;2.42;1.60;;;12.90;93.60;;;;;;5010217;28;20552;-85
2023/04/14 11:33:38;;;;;;;8.30;1.85;;;12.40;94.70;;;;;;5009489;28;20179;-86
2023/04/14 11:36:06;;;;;;;2.95;1.65;;;12.40;95.00;;;;;;5011500;28;20181;-83
2023/04/14 11:38:34;;;;;;;8.50;2.70;;;12.00;95.20;;;;;;5008750;28;20233;-85
2023/04/14 11:41:00;;;;;;;7.25;2.30;;;12.50;96.40;;;;;;5009347;28;20226;-84
2023/04/14 11:43:29;;;;;;;5.38;2.08;;;12.70;94.80;;;;;;5004789;28;20183;-85
2023/04/14 11:45:57;;;;;;;9.15;2.45;;;12.70;93.30;;;;;;5010682;28;20277;-85
2023/04/14 11:48:23;;;;;;;6.20;2.80;;;13.00;93.30;;;;;;5010667;28;20167;-84
2023/04/14 11:50:48;;;;;;;6.83;2.00;;;13.70;96.10;;;;;;5012785;28;20460;-84
2023/04/14 11:53:16;;;;;;;6.33;1.50;;;14.20;94.20;;;;;;5008829;28;20992;-84
2023/04/14 11:55:50;;;;;;;3.40;1.47;;;14.60;92.20;;;;;;5013061;28;20182;-85
2023/04/14 11:58:22;;;;;;;3.43;1.40;;;14.80;91.70;;;;;;5015025;28;20480;-85
2023/04/14 12:00:48;;;;;;;3.53;1.47;;;14.90;91.30;;;;;;5009502;28;20487;-84
2023/04/14 12:03:14;;;;;;;2.07;1.47;;;13.50;91.90;;;;;;5012109;28;20476;-84
2023/04/14 12:05:40;;;;;;;7.03;1.67;;;13.10;94.30;;;;;;5008368;28;20453;-84
2023/04/14 12:08:07;;;;;;;8.70;2.03;;;12.50;93.70;;;;;;5008152;28;20438;-84
2023/04/14 12:10:36;;;;;;;6.07;1.93;;;12.50;94.00;;;;;;5011371;28;20229;-84
2023/04/14 12:13:03;;;;;;;7.28;2.13;;;12.60;94.90;;;;;;5007863;28;20434;-84
2023/04/14 12:15:31;;;;;;;4.45;2.22;;;12.20;94.00;;;;;;5007339;28;20257;-84
2023/04/14 12:17:58;;;;;;;8.35;1.80;;;12.10;94.30;;;;;;5013573;28;20185;-84
2023/04/14 12:20:26;;;;;;;5.32;1.80;;;12.10;93.40;;;;;;5005456;28;20285;-83
2023/04/14 12:22:51;;;;;;;7.35;2.95;;;12.20;94.80;;;;;;5016055;28;20226;-83
2023/04/14 12:25:17;;;;;;;3.87;1.40;;;12.00;93.90;;;;;;5010649;28;20678;-84
2023/04/14 12:27:50;;;;;;;9.63;2.63;;;11.90;94.00;;;;;;5009779;28;20179;-85
2023/04/14 12:30:20;;;;;;;7.18;2.53;;;11.90;94.30;;;;;;5011271;28;20191;-84
2023/04/14 12:32:45;;;;;;;3.55;1.77;;;11.90;94.30;;;;;;5006278;28;20181;-85
2023/04/14 12:35:11;;;;;;;9.73;1.63;;;11.90;95.10;;;;;;5005748;28;20179;-84
2023/04/14 12:37:37;;;;;;;6.93;1.70;;;11.80;94.10;;;;;;5007972;28;20713;-85
2023/04/14 12:40:05;;;;;;;4.35;1.60;;;11.90;94.90;;;;;;5008185;28;20338;-85
2023/04/14 12:42:47;;;;;;;4.28;1.48;;;12.00;96.50;;;;;;5008368;28;20212;-82
2023/04/14 12:45:14;;;;;;;8.05;1.75;;;12.00;97.20;;;;;;5007500;28;20187;-84
2023/04/14 12:47:49;;;;;;;6.40;1.55;;;12.10;97.20;;;;;;5007051;28;20179;-82
2023/04/14 12:50:27;;;;;;;4.72;1.73;;;12.20;95.10;;;;;;5004291;28;20593;-85
2023/04/14 12:52:53;;;;;;;3.78;2.08;;;12.20;92.80;;;;;;5007095;28;20174;-84
2023/04/14 12:55:21;;;;;;;10.30;2.47;;;12.30;94.00;;;;;;5001623;28;20183;-84
2023/04/14 12:57:47;;;;;;;3.55;1.52;;;12.20;94.30;;;;;;5003524;28;20175;-85
2023/04/14 13:00:13;;;;;;;3.83;1.60;;;12.10;92.40;;;;;;5009217;28;20761;-85